createdAt,value
2022-12-13T00:01:24.664Z,-7.55
2022-12-13T00:03:53.871Z,-7.50
2022-12-13T00:06:23.046Z,-7.53
2022-12-13T00:08:50.826Z,-7.54
2022-12-13T00:11:19.372Z,-7.54
2022-12-13T00:13:47.920Z,-7.51
2022-12-13T00:16:17.637Z,-7.50
2022-12-13T00:18:49.221Z,-7.55
2022-12-13T00:21:19.025Z,-7.57
2022-12-13T00:23:48.703Z,-7.65
2022-12-13T00:26:18.381Z,-7.65
2022-12-13T00:28:48.115Z,-7.64
2022-12-13T00:34:03.881Z,-7.50
2022-12-13T00:36:31.511Z,-7.47
2022-12-13T00:39:03.137Z,-7.51
2022-12-13T00:41:32.773Z,-7.58
2022-12-13T00:44:00.993Z,-7.57
2022-12-13T00:46:29.700Z,-7.58
2022-12-13T00:48:58.658Z,-7.63
2022-12-13T00:51:27.578Z,-7.81
2022-12-13T00:53:55.401Z,-7.91
2022-12-13T00:56:25.961Z,-7.87
2022-12-13T00:58:54.326Z,-7.84
2022-12-13T01:01:24.497Z,-7.86
2022-12-13T01:03:52.448Z,-7.86
2022-12-13T01:06:21.966Z,-7.84
2022-12-13T01:08:49.752Z,-7.80
2022-12-13T01:11:18.612Z,-7.76
2022-12-13T01:13:47.637Z,-7.75
2022-12-13T01:16:15.394Z,-7.77
2022-12-13T01:18:43.146Z,-7.71
2022-12-13T01:21:12.809Z,-7.68
2022-12-13T01:23:41.249Z,-7.65
2022-12-13T01:26:10.653Z,-7.65
2022-12-13T01:28:38.411Z,-7.65
2022-12-13T01:31:09.509Z,-7.65
2022-12-13T01:33:37.680Z,-7.70
2022-12-13T01:36:08.333Z,-7.67
2022-12-13T01:38:38.012Z,-7.68
2022-12-13T01:41:16.877Z,-7.69
2022-12-13T01:43:54.912Z,-7.78
2022-12-13T01:46:24.369Z,-7.74
2022-12-13T01:48:57.592Z,-7.79
2022-12-13T01:51:28.328Z,-7.74
2022-12-13T01:53:57.926Z,-7.72
2022-12-13T01:56:29.254Z,-7.70
2022-12-13T01:58:57.785Z,-7.67
2022-12-13T02:01:26.974Z,-7.67
2022-12-13T02:03:54.664Z,-7.64
2022-12-13T02:06:27.781Z,-7.70
2022-12-13T02:08:55.434Z,-7.69
2022-12-13T02:11:23.761Z,-7.73
2022-12-13T02:13:51.474Z,-7.74
2022-12-13T02:16:29.261Z,-7.76
2022-12-13T02:19:09.474Z,-7.73
2022-12-13T02:21:44.706Z,-7.72
2022-12-13T02:24:35.254Z,-7.74
2022-12-13T02:27:09.835Z,-7.74
2022-12-13T02:30:12.545Z,-7.71
2022-12-13T02:32:44.360Z,-7.70
2022-12-13T02:35:12.716Z,-7.72
2022-12-13T02:37:50.027Z,-7.70
2022-12-13T02:40:23.012Z,-7.66
2022-12-13T02:42:56.076Z,-7.64
2022-12-13T02:45:30.165Z,-7.63
2022-12-13T02:47:59.134Z,-7.65
2022-12-13T02:50:27.456Z,-7.69
2022-12-13T02:52:55.712Z,-7.79
2022-12-13T02:55:27.966Z,-7.92
2022-12-13T02:57:56.041Z,-7.99
2022-12-13T03:00:31.153Z,-7.95
2022-12-13T03:03:11.011Z,-7.96
2022-12-13T03:06:01.778Z,-7.95
2022-12-13T03:08:36.770Z,-7.96
2022-12-13T03:11:07.617Z,-8.02
2022-12-13T03:13:38.930Z,-8.02
2022-12-13T03:16:13.072Z,-8.03
2022-12-13T03:18:41.559Z,-8.12
2022-12-13T03:21:10.416Z,-8.24
2022-12-13T03:23:38.523Z,-8.25
2022-12-13T03:26:09.413Z,-8.29
2022-12-13T03:28:37.482Z,-8.43
2022-12-13T03:31:05.538Z,-8.43
2022-12-13T03:33:34.928Z,-8.38
2022-12-13T03:36:03.246Z,-8.36
2022-12-13T03:38:31.376Z,-8.34
2022-12-13T03:41:02.248Z,-8.35
2022-12-13T03:43:30.293Z,-8.34
2022-12-13T03:45:58.133Z,-8.39
2022-12-13T03:48:25.997Z,-8.39
2022-12-13T03:50:55.712Z,-8.39
2022-12-13T03:53:33.177Z,-8.42
2022-12-13T03:56:02.677Z,-8.48
2022-12-13T03:58:35.827Z,-8.52
2022-12-13T04:01:04.951Z,-8.52
2022-12-13T04:03:32.584Z,-8.55
2022-12-13T04:06:01.575Z,-8.59
2022-12-13T04:08:29.261Z,-8.60
2022-12-13T04:10:56.967Z,-8.64
2022-12-13T04:13:32.510Z,-8.75
2022-12-13T04:16:00.437Z,-8.74
2022-12-13T04:18:28.159Z,-8.78
2022-12-13T04:20:55.788Z,-8.84
2022-12-13T04:23:24.783Z,-8.89
2022-12-13T04:25:52.490Z,-9.01
2022-12-13T04:28:22.187Z,-9.02
2022-12-13T04:30:52.803Z,-9.04
2022-12-13T04:33:21.825Z,-8.97
2022-12-13T04:35:49.543Z,-8.99
2022-12-13T04:38:17.261Z,-8.98
2022-12-13T04:40:46.339Z,-9.15
2022-12-13T04:43:13.995Z,-9.15
2022-12-13T04:45:41.906Z,-9.20
2022-12-13T04:48:09.771Z,-9.16
2022-12-13T04:50:37.500Z,-9.12
2022-12-13T04:53:05.193Z,-9.07
2022-12-13T04:55:32.933Z,-9.06
2022-12-13T04:58:01.945Z,-9.06
2022-12-13T05:00:29.679Z,-9.09
2022-12-13T05:02:57.387Z,-9.14
2022-12-13T05:05:25.049Z,-9.14
2022-12-13T05:07:52.751Z,-9.21
2022-12-13T05:10:35.850Z,-9.26
2022-12-13T05:13:07.473Z,-9.27
2022-12-13T05:15:35.557Z,-9.32
2022-12-13T05:18:09.592Z,-9.41
2022-12-13T05:20:39.297Z,-9.57
2022-12-13T05:23:07.080Z,-9.54
2022-12-13T05:25:35.121Z,-9.58
2022-12-13T05:28:09.096Z,-9.54
2022-12-13T05:30:51.980Z,-9.61
2022-12-13T05:33:20.021Z,-9.74
2022-12-13T17:36:43.557Z,-6.77
2022-12-13T17:39:30.237Z,-6.77
2022-12-13T17:41:57.874Z,-6.80
2022-12-13T17:44:25.905Z,-6.79
2022-12-13T17:46:54.636Z,-6.77
2022-12-13T17:49:23.133Z,-6.82
2022-12-13T17:51:53.973Z,-6.95
2022-12-13T17:54:21.970Z,-6.99
2022-12-13T17:56:49.569Z,-6.92
2022-12-13T17:59:17.677Z,-6.89
2022-12-13T18:01:45.702Z,-6.90
2022-12-13T18:04:13.705Z,-6.90
2022-12-13T18:06:41.544Z,-6.96
2022-12-13T18:09:12.859Z,-7.01
2022-12-13T18:11:40.672Z,-7.07
2022-12-13T18:14:09.807Z,-7.08
2022-12-13T18:16:39.147Z,-7.06
2022-12-13T18:19:08.190Z,-7.12
2022-12-13T18:21:37.018Z,-7.23
2022-12-13T18:24:06.172Z,-7.22
2022-12-13T18:26:35.504Z,-7.20
2022-12-13T18:29:03.401Z,-7.14
2022-12-13T18:31:31.238Z,-7.20
2022-12-13T18:33:58.987Z,-7.27
2022-12-13T18:36:27.230Z,-7.31
2022-12-13T18:38:55.113Z,-7.30
2022-12-13T18:41:24.088Z,-7.31
2022-12-13T18:43:59.434Z,-7.35
2022-12-13T18:46:27.992Z,-7.39
2022-12-13T18:48:56.698Z,-7.37
2022-12-13T18:51:24.633Z,-7.34
2022-12-13T18:53:52.947Z,-7.29
2022-12-13T18:56:20.855Z,-7.29
2022-12-13T18:58:49.019Z,-7.29
2022-12-13T19:01:19.204Z,-7.25
2022-12-13T19:03:48.339Z,-7.24
2022-12-13T19:06:17.616Z,-7.25
2022-12-13T19:08:48.155Z,-7.21
2022-12-13T19:11:15.857Z,-7.20
2022-12-13T19:13:43.653Z,-7.18
2022-12-13T19:16:15.311Z,-7.12
2022-12-13T19:18:44.616Z,-7.23
2022-12-13T19:21:15.648Z,-7.19
2022-12-13T19:23:43.463Z,-7.17
2022-12-13T19:26:13.137Z,-7.15
2022-12-13T19:28:42.388Z,-7.18
2022-12-13T19:31:11.055Z,-7.14
2022-12-13T19:33:38.863Z,-7.09
2022-12-13T19:36:09.377Z,-7.12
2022-12-13T19:38:37.991Z,-7.20
2022-12-13T19:41:09.834Z,-7.14
2022-12-13T19:43:37.558Z,-7.12
2022-12-13T19:46:05.592Z,-7.08
2022-12-13T19:48:34.320Z,-7.01
2022-12-13T19:51:02.750Z,-7.03
2022-12-13T19:53:32.156Z,-6.99
2022-12-13T19:56:00.500Z,-7.04
2022-12-13T19:58:28.481Z,-7.08
2022-12-13T20:01:02.686Z,-7.17
2022-12-13T20:03:33.142Z,-7.12
2022-12-13T20:06:03.573Z,-7.14
2022-12-13T20:08:33.127Z,-7.28
2022-12-13T20:11:02.768Z,-7.25
2022-12-13T20:13:31.105Z,-7.33
2022-12-13T20:15:59.169Z,-7.41
2022-12-13T20:18:27.442Z,-7.45
2022-12-13T20:21:11.561Z,-7.32
2022-12-13T20:23:42.400Z,-7.20
2022-12-13T20:26:19.068Z,-7.13
2022-12-13T20:28:46.850Z,-7.02
2022-12-13T20:31:15.923Z,-6.98
2022-12-13T20:33:43.792Z,-6.96
2022-12-13T20:36:28.572Z,-6.90
2022-12-13T20:38:59.543Z,-6.87
2022-12-13T20:41:28.786Z,-6.86
2022-12-13T20:43:57.652Z,-6.84
2022-12-13T20:46:26.145Z,-6.89
2022-12-13T20:48:55.100Z,-6.86
2022-12-13T20:51:24.641Z,-6.82
2022-12-13T20:53:53.438Z,-6.84
2022-12-13T20:56:24.023Z,-6.83
2022-12-13T20:58:52.215Z,-6.81
2022-12-13T21:01:22.900Z,-6.83
2022-12-13T21:03:50.978Z,-6.86
2022-12-13T21:06:18.623Z,-6.82
2022-12-13T21:08:51.957Z,-6.80
2022-12-13T21:11:25.495Z,-6.96
2022-12-13T21:13:56.455Z,-6.89
2022-12-13T21:16:24.932Z,-6.82
2022-12-13T21:18:54.160Z,-6.79
2022-12-13T21:21:21.821Z,-6.78
2022-12-13T21:23:49.485Z,-6.73
2022-12-13T21:26:18.261Z,-6.72
2022-12-13T21:28:46.278Z,-6.67
2022-12-13T21:31:15.393Z,-6.69
2022-12-13T21:33:43.035Z,-6.67
2022-12-13T21:36:12.395Z,-6.62
2022-12-13T21:38:40.059Z,-6.58
2022-12-13T21:41:08.974Z,-6.62
2022-12-13T21:43:40.206Z,-6.63
2022-12-13T21:46:09.841Z,-6.59
2022-12-13T21:48:40.623Z,-6.53
2022-12-13T21:51:09.839Z,-6.52
2022-12-13T21:53:37.840Z,-6.52
2022-12-13T21:56:23.879Z,-6.49
2022-12-13T21:59:08.893Z,-6.54
2022-12-13T22:01:50.704Z,-6.45
2022-12-13T22:04:21.136Z,-6.41
2022-12-13T22:06:49.010Z,-6.40
2022-12-13T22:09:16.745Z,-6.40
2022-12-13T22:11:44.359Z,-6.42
2022-12-13T22:14:11.996Z,-6.48
2022-12-13T22:16:39.715Z,-6.59
2022-12-13T22:19:07.495Z,-6.55
2022-12-13T22:21:36.560Z,-6.50
2022-12-13T22:24:04.328Z,-6.53
2022-12-13T22:26:32.001Z,-6.47
2022-12-13T22:28:59.691Z,-6.43
2022-12-13T22:31:29.866Z,-6.35
2022-12-13T22:33:58.153Z,-6.28
2022-12-13T22:36:26.303Z,-6.24
2022-12-13T22:38:55.384Z,-6.20
2022-12-13T22:41:23.096Z,-6.16
2022-12-13T22:43:50.820Z,-6.15
2022-12-13T22:46:20.189Z,-6.25
2022-12-13T22:48:48.077Z,-6.21
2022-12-13T22:51:17.347Z,-6.21
2022-12-13T22:53:47.875Z,-6.17
2022-12-13T22:56:18.234Z,-6.12
2022-12-13T22:58:46.940Z,-6.11
2022-12-13T23:01:16.932Z,-6.16
2022-12-13T23:03:45.458Z,-6.16
2022-12-13T23:06:14.473Z,-6.13
2022-12-13T23:08:44.826Z,-6.08
2022-12-13T23:11:30.647Z,-6.04
2022-12-13T23:14:01.862Z,-5.99
2022-12-13T23:16:31.208Z,-6.05
2022-12-13T23:19:24.144Z,-6.07
2022-12-13T23:21:48.552Z,-6.04
2022-12-13T23:24:16.673Z,-6.01
2022-12-13T23:26:44.390Z,-5.98
2022-12-13T23:29:13.436Z,-6.05
2022-12-13T23:31:42.051Z,-6.01
2022-12-13T23:34:10.365Z,-5.98
2022-12-13T23:36:38.494Z,-5.93
2022-12-13T23:39:07.426Z,-5.92
2022-12-13T23:41:35.367Z,-5.94
2022-12-13T23:44:03.168Z,-5.92
2022-12-13T23:46:34.367Z,-5.87
2022-12-13T23:49:03.599Z,-5.90
2022-12-13T23:51:31.367Z,-5.90
2022-12-13T23:53:59.151Z,-5.88
2022-12-13T23:56:26.798Z,-5.93
2022-12-13T23:58:54.463Z,-5.88
